Time;durP1;ratioP1;P1;durP2;ratioP2;P2;SDS_P1;SDS_P2;PMS_P1;PMS_P2;Temp;Humidity;BMP_temperature;BMP_pressure;BME280_temperature;BME280_humidity;BME280_pressure;Samples;Min_cycle;Max_cycle;Signal;HPM_P1;HPM_P2
2022/07/31 00:00:08;;;;;;;0.60;0.25;;;20.20;99.90;;;;;;4991683;28;20394;-81
2022/07/31 00:02:40;;;;;;;0.85;0.30;;;20.20;99.90;;;;;;4994772;28;20030;-80
2022/07/31 00:05:08;;;;;;;1.65;0.30;;;20.20;99.90;;;;;;4989352;28;20039;-86
2022/07/31 00:07:34;;;;;;;1.23;0.40;;;20.20;99.90;;;;;;4997023;28;20374;-81
2022/07/31 00:10:06;;;;;;;0.70;0.20;;;20.20;99.90;;;;;;5006729;28;20032;-84
2022/07/31 00:12:33;;;;;;;0.60;0.30;;;20.10;99.90;;;;;;5017982;28;20029;-79
2022/07/31 00:15:00;;;;;;;1.77;0.30;;;20.10;99.90;;;;;;4990550;28;20021;-83
2022/07/31 00:17:26;;;;;;;1.63;0.30;;;20.10;99.90;;;;;;4992654;28;20037;-82
2022/07/31 00:19:52;;;;;;;0.75;0.25;;;20.10;99.90;;;;;;5004702;28;20029;-80
2022/07/31 00:22:18;;;;;;;0.80;0.20;;;20.10;99.90;;;;;;5001893;28;20108;-87
2022/07/31 00:24:43;;;;;;;1.38;0.30;;;20.00;99.90;;;;;;5017835;28;20160;-80
2022/07/31 00:27:11;;;;;;;1.08;0.30;;;20.10;99.90;;;;;;5014991;28;20024;-83
2022/07/31 00:29:37;;;;;;;1.33;0.20;;;20.00;99.90;;;;;;4990826;28;20587;-82
2022/07/31 00:32:03;;;;;;;0.90;0.28;;;20.00;99.90;;;;;;5015562;28;20024;-80
2022/07/31 00:34:34;;;;;;;1.42;0.20;;;20.00;99.90;;;;;;5006160;28;20025;-80
2022/07/31 00:37:01;;;;;;;1.42;0.30;;;20.00;99.90;;;;;;4997123;28;20053;-80
2022/07/31 00:39:26;;;;;;;0.57;0.22;;;19.90;99.90;;;;;;5016590;28;20056;-80
2022/07/31 00:42:00;;;;;;;0.75;0.20;;;19.90;99.90;;;;;;5016566;28;20033;-80
2022/07/31 00:44:25;;;;;;;0.88;0.20;;;19.90;99.90;;;;;;4990868;28;20050;-81
2022/07/31 00:46:52;;;;;;;0.75;0.20;;;19.90;99.90;;;;;;4989988;28;20030;-88
2022/07/31 00:49:17;;;;;;;1.63;0.30;;;19.90;99.90;;;;;;4977672;28;20036;-83
2022/07/31 00:51:46;;;;;;;0.75;0.20;;;19.90;99.90;;;;;;4990828;28;20026;-82
2022/07/31 00:54:12;;;;;;;1.35;0.30;;;19.90;99.90;;;;;;5014102;28;20104;-79
2022/07/31 00:56:41;;;;;;;1.45;0.20;;;19.90;99.90;;;;;;4986923;28;20557;-86
2022/07/31 00:59:09;;;;;;;1.42;0.20;;;19.90;99.90;;;;;;5008284;28;20712;-82
2022/07/31 01:01:34;;;;;;;0.60;0.20;;;19.80;99.90;;;;;;5015110;28;20084;-85
2022/07/31 01:04:03;;;;;;;1.73;0.30;;;19.80;99.90;;;;;;5015283;28;20041;-85
2022/07/31 01:06:28;;;;;;;0.82;0.28;;;19.80;99.90;;;;;;4975408;28;20038;-81
2022/07/31 01:08:54;;;;;;;1.02;0.20;;;19.70;99.90;;;;;;5011168;28;20410;-81
2022/07/31 01:12:01;;;;;;;0.82;0.30;;;19.70;99.90;;;;;;5010616;28;20127;-81
2022/07/31 01:14:35;;;;;;;1.33;0.30;;;19.70;99.90;;;;;;4988023;28;20120;-81
2022/07/31 01:17:03;;;;;;;0.70;0.20;;;19.70;99.90;;;;;;5010689;28;20252;-83
2022/07/31 01:19:43;;;;;;;0.98;0.30;;;19.70;99.90;;;;;;4998481;28;20025;-83
2022/07/31 01:22:35;;;;;;;0.70;0.22;;;19.70;99.90;;;;;;4989931;28;20034;-87
2022/07/31 01:25:14;;;;;;;1.38;0.20;;;19.70;99.90;;;;;;4973695;28;20038;-83
2022/07/31 01:27:55;;;;;;;0.98;0.30;;;19.60;99.90;;;;;;5006536;28;20034;-80
2022/07/31 01:30:30;;;;;;;0.67;0.30;;;19.60;99.90;;;;;;4990809;28;20030;-80
2022/07/31 01:33:01;;;;;;;0.60;0.20;;;19.60;99.90;;;;;;5002845;28;20028;-92
2022/07/31 01:35:34;;;;;;;1.02;0.40;;;19.60;99.90;;;;;;4985073;28;20054;-80
2022/07/31 01:38:02;;;;;;;1.52;0.30;;;19.50;99.90;;;;;;5006795;28;20026;-80
2022/07/31 01:40:38;;;;;;;0.82;0.20;;;19.50;99.90;;;;;;4973643;28;20034;-83
2022/07/31 01:43:07;;;;;;;1.40;0.22;;;19.50;99.90;;;;;;4990929;28;20053;-81
2022/07/31 01:45:39;;;;;;;2.07;0.20;;;19.50;99.90;;;;;;4995322;28;20030;-85
2022/07/31 01:48:09;;;;;;;1.50;0.20;;;19.50;99.90;;;;;;4989334;28;20026;-81
2022/07/31 01:50:37;;;;;;;0.80;0.30;;;19.40;99.90;;;;;;4984089;28;20029;-83
2022/07/31 01:53:05;;;;;;;2.05;0.40;;;19.40;99.90;;;;;;5008398;28;20533;-80
2022/07/31 01:55:33;;;;;;;0.90;0.20;;;19.40;99.90;;;;;;4989968;28;20490;-80
2022/07/31 01:58:00;;;;;;;1.05;0.20;;;19.40;99.90;;;;;;4988056;28;20022;-82
2022/07/31 02:00:26;;;;;;;1.17;0.30;;;19.40;99.90;;;;;;4989802;28;20108;-81
2022/07/31 02:02:54;;;;;;;0.80;0.20;;;19.30;99.90;;;;;;5010295;28;20101;-78
2022/07/31 02:05:24;;;;;;;1.40;0.30;;;19.40;99.90;;;;;;5003963;28;20483;-80
2022/07/31 02:07:52;;;;;;;1.50;0.32;;;19.30;99.90;;;;;;4988959;28;20503;-87
2022/07/31 02:10:22;;;;;;;1.02;0.20;;;19.30;99.90;;;;;;4987898;28;20030;-80
2022/07/31 02:12:51;;;;;;;2.88;0.30;;;19.20;99.90;;;;;;4976826;28;20022;-86
2022/07/31 02:15:18;;;;;;;1.23;0.45;;;19.20;99.90;;;;;;4988672;28;20044;-80
2022/07/31 02:17:45;;;;;;;1.83;0.40;;;19.10;99.90;;;;;;4976187;28;20034;-79
2022/07/31 02:20:33;;;;;;;1.10;0.32;;;19.00;99.90;;;;;;4992148;28;20033;-87
2022/07/31 02:23:00;;;;;;;0.75;0.30;;;18.90;99.90;;;;;;4988515;28;20053;-81
2022/07/31 02:25:26;;;;;;;1.38;0.40;;;18.90;99.90;;;;;;4989544;28;20037;-82
2022/07/31 02:28:01;;;;;;;2.13;0.50;;;18.90;99.90;;;;;;4989670;28;20095;-81
2022/07/31 02:30:33;;;;;;;1.92;0.30;;;18.80;99.90;;;;;;4968175;28;20022;-83
2022/07/31 02:33:04;;;;;;;1.48;0.40;;;18.90;99.90;;;;;;5010290;28;20635;-83
2022/07/31 02:35:30;;;;;;;0.70;0.30;;;18.90;99.90;;;;;;4972247;28;20030;-80
2022/07/31 02:38:00;;;;;;;1.50;0.40;;;18.90;99.90;;;;;;4994416;28;20053;-81
2022/07/31 02:40:26;;;;;;;0.77;0.30;;;18.90;99.90;;;;;;4988133;28;20037;-91
2022/07/31 02:42:53;;;;;;;1.20;0.30;;;18.80;99.90;;;;;;4988958;28;20033;-80
2022/07/31 02:45:21;;;;;;;0.82;0.40;;;18.80;99.90;;;;;;5002601;28;20029;-81
2022/07/31 02:47:47;;;;;;;1.08;0.30;;;18.80;99.90;;;;;;4978417;28;20029;-80
2022/07/31 02:50:16;;;;;;;2.42;0.30;;;18.80;99.90;;;;;;4980497;28;20029;-87
2022/07/31 02:52:42;;;;;;;1.10;0.30;;;18.70;99.90;;;;;;4998634;28;20037;-80
2022/07/31 02:55:12;;;;;;;1.25;0.40;;;18.80;99.90;;;;;;5013854;28;20087;-82
2022/07/31 02:57:38;;;;;;;2.72;0.40;;;18.80;99.90;;;;;;4993480;28;20030;-81
2022/07/31 03:00:25;;;;;;;1.23;0.40;;;18.70;99.90;;;;;;4993765;28;20018;-81
2022/07/31 03:02:56;;;;;;;1.15;0.30;;;18.60;99.90;;;;;;4975559;28;20120;-80
2022/07/31 03:05:23;;;;;;;0.90;0.32;;;18.50;99.90;;;;;;4990135;28;20038;-85
2022/07/31 03:07:51;;;;;;;1.30;0.40;;;18.50;99.90;;;;;;4997954;28;20041;-80
2022/07/31 03:10:17;;;;;;;0.73;0.40;;;18.50;99.90;;;;;;4998522;28;20029;-80
2022/07/31 03:13:05;;;;;;;1.13;0.40;;;18.50;99.90;;;;;;5004934;28;20057;-83
2022/07/31 03:15:34;;;;;;;0.90;0.40;;;18.50;99.90;;;;;;5000024;28;20123;-84
2022/07/31 03:18:00;;;;;;;2.90;0.52;;;18.40;99.90;;;;;;5010588;28;20159;-84
2022/07/31 03:20:35;;;;;;;1.15;0.52;;;18.40;99.90;;;;;;4992384;28;20038;-85
2022/07/31 03:23:01;;;;;;;1.58;0.50;;;18.50;99.90;;;;;;5013481;28;20022;-84
2022/07/31 03:25:27;;;;;;;0.98;0.40;;;18.50;99.90;;;;;;5001825;28;20030;-84
2022/07/31 03:28:01;;;;;;;1.00;0.45;;;18.50;99.90;;;;;;4992971;28;20026;-81
2022/07/31 03:30:27;;;;;;;1.30;0.50;;;18.50;99.90;;;;;;4990003;28;20033;-81
2022/07/31 03:33:01;;;;;;;1.92;0.60;;;18.50;99.90;;;;;;4999497;28;20033;-81
2022/07/31 03:35:27;;;;;;;1.25;0.40;;;18.40;99.90;;;;;;4976746;28;20022;-80
2022/07/31 03:37:52;;;;;;;3.65;0.70;;;18.50;99.90;;;;;;5003285;28;20045;-80
2022/07/31 03:40:23;;;;;;;1.40;0.60;;;18.50;99.90;;;;;;4997381;28;20109;-79
2022/07/31 03:42:52;;;;;;;2.83;0.50;;;18.50;99.90;;;;;;4985254;28;20156;-80
2022/07/31 03:45:19;;;;;;;1.83;0.47;;;18.50;99.90;;;;;;4999639;28;20033;-83
2022/07/31 03:47:54;;;;;;;0.80;0.40;;;18.50;99.90;;;;;;4980230;28;20516;-85
2022/07/31 03:50:27;;;;;;;1.17;0.43;;;18.50;99.90;;;;;;5004109;28;20030;-80
2022/07/31 03:52:55;;;;;;;1.48;0.50;;;18.60;99.90;;;;;;4989858;28;20037;-79
2022/07/31 03:55:21;;;;;;;1.05;0.45;;;18.60;99.90;;;;;;5015898;28;20108;-80
2022/07/31 03:57:50;;;;;;;1.25;0.57;;;18.60;99.90;;;;;;4990852;28;20057;-82
2022/07/31 04:00:16;;;;;;;2.53;0.50;;;18.60;99.90;;;;;;4974392;28;20029;-79
2022/07/31 04:02:42;;;;;;;2.35;0.50;;;18.60;99.90;;;;;;5012212;28;20041;-79
2022/07/31 04:05:31;;;;;;;1.13;0.57;;;18.60;99.90;;;;;;5003479;28;20041;-89
2022/07/31 04:07:58;;;;;;;1.65;0.60;;;18.60;99.90;;;;;;4996774;28;20042;-83
2022/07/31 04:10:24;;;;;;;1.48;0.60;;;18.60;99.90;;;;;;4986206;28;20022;-83
2022/07/31 04:12:50;;;;;;;1.27;0.60;;;18.60;99.90;;;;;;5014939;28;20018;-82
2022/07/31 04:15:25;;;;;;;1.17;0.50;;;18.60;99.90;;;;;;4998407;28;20038;-80
2022/07/31 04:17:56;;;;;;;1.00;0.60;;;18.60;99.90;;;;;;5000384;28;20036;-80
2022/07/31 04:20:27;;;;;;;2.70;0.50;;;18.60;99.90;;;;;;5005293;28;20030;-79
2022/07/31 04:22:58;;;;;;;1.88;0.63;;;18.60;99.90;;;;;;4998810;28;20100;-82
2022/07/31 04:25:42;;;;;;;1.60;0.60;;;18.60;99.90;;;;;;5010796;28;20173;-86
2022/07/31 04:28:21;;;;;;;1.40;0.68;;;18.60;99.90;;;;;;4990407;28;20359;-80
2022/07/31 04:30:46;;;;;;;1.10;0.60;;;18.70;99.90;;;;;;5001184;28;20125;-86
2022/07/31 04:33:13;;;;;;;1.60;0.60;;;18.70;99.90;;;;;;5002740;28;20021;-80
2022/07/31 04:35:42;;;;;;;2.10;0.93;;;18.70;99.90;;;;;;4999237;28;20129;-79
2022/07/31 04:38:07;;;;;;;1.67;0.70;;;18.60;99.90;;;;;;5001596;28;20068;-79
2022/07/31 04:40:36;;;;;;;2.67;1.33;;;18.60;99.90;;;;;;5002015;28;20449;-82
2022/07/31 04:43:09;;;;;;;3.97;1.40;;;18.60;99.90;;;;;;4976891;28;20033;-80
2022/07/31 04:45:35;;;;;;;1.58;0.75;;;18.50;99.90;;;;;;5009954;28;20445;-82
2022/07/31 04:48:03;;;;;;;2.60;1.65;;;18.70;99.90;;;;;;5000006;28;20018;-80
2022/07/31 04:50:31;;;;;;;2.67;1.73;;;18.60;99.90;;;;;;4988621;28;20541;-80
2022/07/31 04:52:57;;;;;;;5.13;3.80;;;18.60;99.90;;;;;;5002672;28;20153;-80
2022/07/31 04:55:29;;;;;;;4.32;3.10;;;18.60;99.90;;;;;;4988573;28;20080;-87
2022/07/31 04:57:55;;;;;;;3.13;2.25;;;18.60;99.90;;;;;;4975394;28;20018;-80
2022/07/31 05:00:21;;;;;;;3.75;1.83;;;18.70;99.90;;;;;;5011178;28;20489;-79
2022/07/31 05:02:52;;;;;;;2.70;1.27;;;18.70;99.90;;;;;;5003280;28;20592;-82
2022/07/31 05:05:17;;;;;;;1.50;0.75;;;18.80;99.90;;;;;;4997037;28;20038;-79
2022/07/31 05:07:43;;;;;;;2.17;1.60;;;18.80;99.90;;;;;;5010013;28;20084;-80
2022/07/31 05:13:14;;;;;;;3.53;1.73;;;18.80;99.90;;;;;;4933886;28;20112;-80
2022/07/31 05:15:42;;;;;;;2.33;1.33;;;18.90;99.90;;;;;;4935134;28;20106;-79
2022/07/31 05:18:08;;;;;;;2.60;1.42;;;18.90;99.90;;;;;;4930700;28;20483;-80
2022/07/31 05:20:52;;;;;;;4.25;1.52;;;18.90;99.90;;;;;;4949970;28;20448;-82
2022/07/31 05:23:27;;;;;;;2.53;0.82;;;19.00;99.90;;;;;;4933328;28;20031;-83
2022/07/31 05:26:22;;;;;;;1.60;0.90;;;19.10;99.90;;;;;;4945455;28;20047;-82
2022/07/31 05:28:50;;;;;;;2.33;0.80;;;19.10;99.90;;;;;;4950491;28;20032;-80
2022/07/31 05:31:17;;;;;;;3.22;0.77;;;19.20;99.90;;;;;;4933317;28;20031;-80
2022/07/31 05:33:47;;;;;;;1.75;0.90;;;19.20;99.90;;;;;;4932255;28;20050;-81
2022/07/31 05:36:13;;;;;;;2.53;1.10;;;19.20;99.90;;;;;;4951672;28;20163;-81
2022/07/31 05:38:42;;;;;;;2.28;0.95;;;19.20;99.90;;;;;;4933661;28;20034;-80
2022/07/31 05:41:28;;;;;;;4.97;1.90;;;19.20;99.90;;;;;;4949475;28;20038;-81
2022/07/31 05:44:20;;;;;;;4.78;1.90;;;19.20;99.90;;;;;;4933261;28;20032;-92
2022/07/31 05:46:48;;;;;;;3.28;1.27;;;19.30;99.90;;;;;;4949254;28;20050;-80
2022/07/31 05:49:14;;;;;;;5.57;2.50;;;19.50;99.90;;;;;;4949366;28;20034;-85
2022/07/31 05:51:52;;;;;;;3.78;1.90;;;19.60;99.90;;;;;;4988630;28;20034;-81
2022/07/31 05:54:19;;;;;;;3.13;1.50;;;19.70;99.90;;;;;;5009777;28;20022;-84
2022/07/31 05:57:03;;;;;;;8.00;1.67;;;19.80;99.90;;;;;;5007724;28;20512;-81
2022/07/31 05:59:38;;;;;;;2.20;1.08;;;19.90;99.90;;;;;;4996054;28;20053;-86
2022/07/31 06:02:03;;;;;;;3.08;1.20;;;20.00;99.90;;;;;;4972087;28;20050;-86
2022/07/31 06:04:37;;;;;;;1.55;0.77;;;20.10;99.90;;;;;;5004269;28;20064;-86
2022/07/31 06:07:03;;;;;;;5.20;2.10;;;20.10;99.90;;;;;;5001530;28;20034;-80
2022/07/31 06:09:29;;;;;;;7.95;5.32;;;19.90;99.90;;;;;;4991737;28;20120;-81
2022/07/31 06:11:55;;;;;;;7.40;5.55;;;19.80;99.90;;;;;;4988107;28;20030;-82
2022/07/31 06:14:20;;;;;;;9.40;7.53;;;19.70;99.90;;;;;;4986739;28;20068;-82
2022/07/31 06:17:07;;;;;;;9.18;7.75;;;19.60;99.90;;;;;;4996030;28;20022;-81
2022/07/31 06:19:34;;;;;;;10.75;9.27;;;19.60;99.90;;;;;;4989480;28;20026;-82
2022/07/31 06:22:00;;;;;;;12.27;9.48;;;19.50;99.90;;;;;;4995224;28;20076;-82
2022/07/31 06:24:27;;;;;;;15.27;9.05;;;19.40;99.90;;;;;;4975349;28;20030;-81
2022/07/31 06:26:58;;;;;;;8.35;6.55;;;19.40;99.90;;;;;;5000056;28;20030;-83
2022/07/31 06:29:23;;;;;;;8.93;6.07;;;19.40;99.90;;;;;;4998096;28;20022;-86
2022/07/31 06:31:49;;;;;;;11.75;8.63;;;19.40;99.90;;;;;;4983032;28;20033;-81
2022/07/31 06:34:15;;;;;;;11.85;9.40;;;19.30;99.90;;;;;;4975136;28;20026;-81
2022/07/31 06:36:42;;;;;;;12.00;10.65;;;19.30;99.90;;;;;;4982911;28;20025;-87
2022/07/31 06:39:14;;;;;;;10.50;8.50;;;19.30;99.90;;;;;;4972621;28;20026;-81
2022/07/31 06:42:20;;;;;;;8.45;6.65;;;19.50;99.90;;;;;;4982177;28;20513;-80
2022/07/31 06:45:07;;;;;;;5.65;4.40;;;19.50;99.90;;;;;;4996732;28;20030;-90
2022/07/31 06:47:52;;;;;;;11.85;9.43;;;19.60;99.90;;;;;;5007346;28;20122;-80
2022/07/31 06:50:41;;;;;;;6.63;4.78;;;19.50;99.90;;;;;;5008564;28;20049;-82
2022/07/31 06:53:20;;;;;;;5.30;3.35;;;19.60;99.90;;;;;;5010129;28;20039;-88
2022/07/31 06:55:46;;;;;;;6.53;4.40;;;19.80;99.90;;;;;;4982862;28;20371;-83
2022/07/31 06:58:11;;;;;;;5.47;3.55;;;19.90;99.90;;;;;;4994724;28;20061;-81
2022/07/31 07:00:37;;;;;;;5.47;3.60;;;20.00;99.90;;;;;;4996186;28;20095;-85
2022/07/31 07:03:03;;;;;;;6.63;4.63;;;20.10;99.90;;;;;;4973638;28;20026;-87
2022/07/31 07:05:29;;;;;;;6.00;5.35;;;20.10;99.90;;;;;;4985298;28;20088;-85
2022/07/31 07:07:56;;;;;;;6.55;5.20;;;20.20;99.90;;;;;;4984364;28;20045;-84
2022/07/31 07:10:21;;;;;;;7.95;5.47;;;20.30;99.90;;;;;;4986005;28;20026;-83
2022/07/31 07:12:59;;;;;;;6.65;5.90;;;20.20;99.90;;;;;;5006123;28;20044;-81
2022/07/31 07:15:26;;;;;;;6.10;5.50;;;20.30;99.90;;;;;;5001933;28;20030;-85
2022/07/31 07:17:52;;;;;;;4.90;4.35;;;20.40;99.90;;;;;;4989334;28;20025;-86
2022/07/31 07:20:27;;;;;;;4.78;4.22;;;20.50;99.90;;;;;;4991547;28;20030;-82
2022/07/31 07:22:52;;;;;;;5.70;4.30;;;20.30;99.90;;;;;;4993404;28;20029;-84
2022/07/31 07:25:33;;;;;;;4.57;3.72;;;20.30;99.90;;;;;;4974525;28;20104;-84
2022/07/31 07:27:59;;;;;;;5.32;4.07;;;20.30;99.90;;;;;;4988003;28;20026;-86
2022/07/31 07:30:27;;;;;;;3.03;2.22;;;20.10;99.90;;;;;;4983419;28;20029;-81
2022/07/31 07:32:55;;;;;;;4.78;2.92;;;20.10;99.90;;;;;;5012071;28;20486;-84
2022/07/31 07:35:21;;;;;;;4.97;2.78;;;20.10;99.90;;;;;;4995609;28;20501;-81
2022/07/31 07:37:51;;;;;;;4.28;3.30;;;20.10;99.90;;;;;;4993589;28;20083;-82
2022/07/31 07:40:18;;;;;;;4.60;3.13;;;20.10;99.90;;;;;;4996630;28;20022;-82
2022/07/31 07:42:45;;;;;;;3.55;2.00;;;20.10;99.90;;;;;;4982122;28;20399;-82
2022/07/31 07:45:11;;;;;;;9.35;4.97;;;20.30;99.90;;;;;;4991044;28;20037;-83
2022/07/31 07:47:37;;;;;;;4.03;3.63;;;20.10;99.90;;;;;;4987950;28;20045;-84
2022/07/31 07:50:05;;;;;;;5.55;3.20;;;20.30;99.90;;;;;;5004859;28;20120;-86
2022/07/31 07:53:00;;;;;;;6.55;3.92;;;20.30;99.90;;;;;;5001577;28;20042;-83
2022/07/31 07:55:51;;;;;;;7.72;5.25;;;20.10;99.90;;;;;;4981563;28;20022;-84
2022/07/31 07:58:55;;;;;;;6.05;4.50;;;19.90;99.90;;;;;;5000869;28;20061;-82
2022/07/31 08:01:39;;;;;;;4.20;2.75;;;20.10;99.90;;;;;;4992561;28;20037;-83
2022/07/31 08:04:16;;;;;;;3.70;2.33;;;20.30;99.90;;;;;;4989346;28;20041;-83
2022/07/31 08:06:42;;;;;;;3.42;2.63;;;20.60;99.90;;;;;;4996889;28;20030;-84
2022/07/31 08:09:08;;;;;;;5.63;3.70;;;20.70;99.90;;;;;;5003763;28;20063;-82
2022/07/31 08:11:52;;;;;;;4.40;3.38;;;20.60;99.90;;;;;;5005864;28;20509;-81
2022/07/31 08:14:33;;;;;;;4.85;3.40;;;20.60;99.90;;;;;;5000864;28;20399;-86
2022/07/31 08:17:18;;;;;;;4.72;1.83;;;20.60;99.90;;;;;;4999329;28;20036;-83
2022/07/31 08:19:44;;;;;;;3.05;2.10;;;20.80;99.90;;;;;;4990306;28;20026;-84
2022/07/31 08:22:10;;;;;;;4.40;1.70;;;20.80;99.90;;;;;;5001240;28;20080;-83
2022/07/31 08:24:36;;;;;;;4.50;2.58;;;20.80;99.90;;;;;;4983081;28;20737;-87
2022/07/31 08:29:47;;;;;;;4.13;2.90;;;20.90;99.90;;;;;;5004285;28;20022;-82
2022/07/31 08:32:16;;;;;;;6.45;2.38;;;20.80;99.90;;;;;;5004816;28;20732;-82
2022/07/31 08:35:01;;;;;;;3.08;1.77;;;20.90;99.90;;;;;;5009325;28;20518;-83
2022/07/31 08:37:26;;;;;;;3.35;1.58;;;21.00;99.90;;;;;;5000814;28;20033;-83
2022/07/31 08:39:52;;;;;;;4.82;3.45;;;21.20;99.90;;;;;;5003519;28;20034;-87
2022/07/31 08:42:18;;;;;;;4.65;2.40;;;21.30;99.90;;;;;;4992944;28;20037;-83
2022/07/31 08:44:44;;;;;;;3.17;2.00;;;21.50;99.90;;;;;;4998775;28;20478;-83
2022/07/31 08:47:15;;;;;;;5.20;2.80;;;21.50;99.90;;;;;;5004707;28;20042;-83
2022/07/31 08:49:43;;;;;;;3.95;2.03;;;21.50;99.90;;;;;;4982190;28;20513;-81
2022/07/31 08:52:16;;;;;;;3.30;2.30;;;21.50;99.90;;;;;;4982130;28;20033;-83
2022/07/31 08:54:53;;;;;;;3.38;1.65;;;21.50;99.90;;;;;;5003210;28;20026;-88
2022/07/31 08:57:21;;;;;;;3.58;1.65;;;21.60;99.90;;;;;;5001974;28;20025;-82
2022/07/31 08:59:51;;;;;;;2.83;1.67;;;21.80;99.90;;;;;;5000125;28;20017;-82
2022/07/31 09:02:17;;;;;;;3.90;1.55;;;21.70;99.90;;;;;;4976596;28;20028;-88
2022/07/31 09:05:15;;;;;;;3.50;1.67;;;21.90;99.90;;;;;;4996709;28;20052;-87
2022/07/31 09:07:42;;;;;;;2.70;1.40;;;21.90;99.90;;;;;;4999712;28;20472;-82
2022/07/31 09:10:20;;;;;;;4.45;2.17;;;21.80;99.90;;;;;;4988699;28;20033;-91
2022/07/31 09:12:46;;;;;;;4.75;3.40;;;21.90;99.90;;;;;;4990939;28;20030;-82
2022/07/31 09:15:29;;;;;;;4.80;3.03;;;21.90;99.90;;;;;;4984381;28;20017;-84
2022/07/31 09:17:57;;;;;;;4.05;2.28;;;22.00;99.90;;;;;;5011959;28;20072;-82
2022/07/31 09:20:25;;;;;;;2.80;2.10;;;22.50;99.90;;;;;;4976444;28;20111;-85
2022/07/31 09:23:13;;;;;;;3.70;2.10;;;22.80;99.90;;;;;;4965270;28;20498;-83
2022/07/31 09:25:54;;;;;;;3.97;3.43;;;23.00;99.90;;;;;;4984126;28;20045;-82
2022/07/31 09:28:29;;;;;;;4.40;2.85;;;22.90;99.90;;;;;;5004974;28;20284;-82
2022/07/31 09:30:55;;;;;;;4.70;2.47;;;23.20;99.90;;;;;;4972605;28;20034;-82
2022/07/31 09:33:50;;;;;;;3.53;2.70;;;23.20;99.90;;;;;;4987883;28;20045;-86
2022/07/31 09:36:23;;;;;;;2.08;1.33;;;22.90;99.90;;;;;;5010240;28;20478;-84
2022/07/31 09:38:52;;;;;;;3.95;2.75;;;22.90;99.90;;;;;;4975114;28;20446;-86
2022/07/31 09:41:35;;;;;;;5.22;2.92;;;22.70;99.90;;;;;;4990631;28;20038;-83
2022/07/31 09:44:04;;;;;;;2.75;2.10;;;22.90;99.90;;;;;;5009668;28;20308;-85
2022/07/31 09:46:43;;;;;;;3.85;2.25;;;22.90;99.90;;;;;;4999386;28;20344;-84
2022/07/31 09:49:09;;;;;;;3.50;2.38;;;23.00;99.90;;;;;;5002299;28;20076;-84
2022/07/31 09:51:44;;;;;;;3.40;2.30;;;22.60;99.90;;;;;;4982297;28;20381;-83
2022/07/31 09:54:30;;;;;;;2.30;1.88;;;22.50;99.90;;;;;;4975130;28;20089;-81
2022/07/31 09:57:13;;;;;;;3.75;2.00;;;22.90;99.90;;;;;;5009596;28;20416;-84
2022/07/31 09:59:45;;;;;;;2.30;2.00;;;22.60;99.90;;;;;;4972477;28;20057;-85
2022/07/31 10:02:14;;;;;;;4.82;2.95;;;22.50;99.90;;;;;;4997336;28;20378;-85
2022/07/31 10:04:41;;;;;;;3.60;2.47;;;22.30;99.90;;;;;;4987902;28;20506;-84
2022/07/31 10:07:12;;;;;;;3.03;2.03;;;22.40;99.90;;;;;;4996805;28;20041;-88
2022/07/31 10:09:40;;;;;;;2.38;1.40;;;22.50;99.90;;;;;;4971079;28;20105;-84
2022/07/31 10:12:16;;;;;;;3.83;2.03;;;22.40;99.90;;;;;;4993959;28;20033;-85
2022/07/31 10:14:43;;;;;;;3.57;2.50;;;22.40;99.90;;;;;;4995912;28;20025;-84
2022/07/31 10:17:11;;;;;;;3.42;2.65;;;22.20;99.90;;;;;;5009704;28;20022;-84
2022/07/31 10:20:04;;;;;;;3.70;1.80;;;22.10;99.90;;;;;;4994528;28;20030;-84
2022/07/31 10:23:04;;;;;;;3.50;1.90;;;22.20;99.90;;;;;;4982250;28;20420;-85
2022/07/31 10:25:34;;;;;;;2.60;1.80;;;22.10;99.90;;;;;;5002022;28;20042;-85
2022/07/31 10:28:06;;;;;;;2.08;1.45;;;22.10;99.90;;;;;;5003915;28;20018;-85
2022/07/31 10:30:31;;;;;;;3.28;1.98;;;22.10;99.90;;;;;;4983412;28;20037;-85
2022/07/31 10:32:58;;;;;;;2.67;2.17;;;22.00;99.90;;;;;;4972538;28;20018;-84
2022/07/31 10:35:25;;;;;;;2.15;1.48;;;22.00;99.90;;;;;;4995942;28;20473;-85
2022/07/31 10:38:27;;;;;;;5.22;1.90;;;22.20;99.90;;;;;;4972451;28;20038;-84
2022/07/31 10:41:16;;;;;;;2.35;1.00;;;22.30;99.90;;;;;;5004486;28;20044;-86
2022/07/31 10:43:46;;;;;;;2.60;2.40;;;22.40;99.90;;;;;;4996259;28;20026;-83
2022/07/31 10:46:44;;;;;;;2.50;1.58;;;22.20;99.90;;;;;;4974481;28;20096;-83
2022/07/31 10:49:57;;;;;;;2.88;2.22;;;22.30;99.90;;;;;;4997141;28;20449;-88
2022/07/31 10:52:27;;;;;;;3.05;2.35;;;22.40;99.90;;;;;;4925195;29;20048;-84
2022/07/31 10:55:28;;;;;;;4.47;3.72;;;22.40;99.90;;;;;;4924958;29;20039;-86
2022/07/31 10:58:15;;;;;;;4.57;3.83;;;22.30;99.90;;;;;;4927087;29;20043;-84
2022/07/31 11:00:52;;;;;;;4.28;2.90;;;22.50;99.90;;;;;;4920515;29;20123;-84
2022/07/31 11:03:52;;;;;;;2.33;1.80;;;22.90;99.90;;;;;;4920904;29;20069;-83
2022/07/31 11:06:40;;;;;;;4.68;4.28;;;23.00;99.90;;;;;;4923808;29;20588;-90
2022/07/31 11:09:28;;;;;;;4.18;3.15;;;22.90;99.90;;;;;;4917987;29;20080;-87
2022/07/31 11:12:16;;;;;;;5.63;3.40;;;23.00;99.90;;;;;;4915553;29;20027;-83
2022/07/31 11:14:47;;;;;;;3.47;2.90;;;23.30;99.90;;;;;;4916469;29;20482;-84
2022/07/31 11:17:37;;;;;;;3.78;3.25;;;23.30;99.90;;;;;;4921854;29;20043;-85
2022/07/31 11:20:24;;;;;;;4.20;2.33;;;23.30;99.90;;;;;;4929550;29;20572;-88
2022/07/31 11:23:05;;;;;;;6.20;4.43;;;23.20;99.90;;;;;;4929150;29;20032;-82
2022/07/31 11:25:34;;;;;;;4.47;4.05;;;22.80;99.90;;;;;;4936966;28;20418;-82
2022/07/31 11:28:17;;;;;;;4.15;2.95;;;23.10;99.90;;;;;;4991635;28;20398;-84
2022/07/31 11:31:06;;;;;;;1.90;1.30;;;23.30;99.90;;;;;;5010222;28;20026;-84
2022/07/31 11:33:46;;;;;;;5.28;2.72;;;23.70;99.90;;;;;;5002084;28;20080;-82
2022/07/31 11:36:18;;;;;;;6.03;5.13;;;23.30;99.90;;;;;;4985858;28;20474;-85
2022/07/31 11:38:46;;;;;;;5.00;4.32;;;22.90;99.90;;;;;;5014234;28;20033;-86
2022/07/31 11:41:13;;;;;;;3.47;1.95;;;22.60;99.90;;;;;;5000177;28;20057;-85
2022/07/31 11:43:45;;;;;;;2.47;2.00;;;22.70;99.90;;;;;;5011753;28;20080;-85
2022/07/31 11:46:13;;;;;;;6.43;4.85;;;22.70;99.90;;;;;;5011920;28;20030;-86
2022/07/31 11:48:38;;;;;;;7.25;6.10;;;22.60;99.90;;;;;;5002883;28;20116;-85
2022/07/31 11:51:04;;;;;;;6.35;5.40;;;22.20;99.90;;;;;;5009899;28;20137;-83
2022/07/31 11:53:38;;;;;;;5.13;3.10;;;22.30;99.90;;;;;;5010267;28;20045;-84
2022/07/31 11:56:04;;;;;;;2.70;2.50;;;22.70;99.90;;;;;;5010096;28;20034;-84
2022/07/31 11:58:29;;;;;;;4.55;3.60;;;23.00;99.90;;;;;;5013247;28;20083;-88
2022/07/31 12:00:58;;;;;;;2.30;2.10;;;22.90;99.90;;;;;;5011146;28;20038;-82
2022/07/31 12:03:29;;;;;;;3.70;2.45;;;23.20;99.90;;;;;;5011321;28;20109;-85
2022/07/31 12:05:54;;;;;;;3.50;2.67;;;23.10;99.90;;;;;;4989859;28;20049;-86
2022/07/31 12:08:22;;;;;;;5.55;3.85;;;23.10;99.90;;;;;;5012020;28;20038;-84
2022/07/31 12:10:50;;;;;;;3.33;2.67;;;22.70;99.90;;;;;;5011207;28;20386;-85
2022/07/31 12:13:18;;;;;;;4.28;3.85;;;22.60;99.90;;;;;;5011272;28;20029;-87
2022/07/31 12:16:00;;;;;;;3.22;2.92;;;22.70;99.90;;;;;;5012017;28;20166;-84
2022/07/31 12:18:27;;;;;;;2.72;1.70;;;23.00;99.90;;;;;;5011480;28;20482;-83
2022/07/31 12:21:02;;;;;;;2.42;1.52;;;23.40;99.90;;;;;;4995243;28;20050;-85
2022/07/31 12:23:46;;;;;;;2.78;1.88;;;23.80;99.90;;;;;;4988672;28;20038;-86
2022/07/31 12:26:20;;;;;;;7.05;4.18;;;23.70;99.90;;;;;;5008583;28;20511;-82
2022/07/31 12:28:59;;;;;;;3.45;2.60;;;23.20;99.90;;;;;;5002231;28;20025;-83
2022/07/31 12:31:30;;;;;;;4.03;2.03;;;23.40;99.90;;;;;;4989466;28;20042;-84
2022/07/31 12:33:55;;;;;;;3.03;1.48;;;23.70;99.90;;;;;;5009488;28;20045;-83
2022/07/31 12:36:21;;;;;;;4.03;2.30;;;23.60;99.90;;;;;;5010421;28;20030;-84
2022/07/31 12:39:01;;;;;;;3.33;1.77;;;23.50;99.90;;;;;;4988122;28;20112;-87
2022/07/31 12:41:28;;;;;;;2.63;1.10;;;23.80;99.90;;;;;;5001868;28;20184;-87
2022/07/31 12:43:54;;;;;;;2.55;1.23;;;24.00;99.90;;;;;;4989215;28;20026;-83
2022/07/31 12:46:34;;;;;;;3.67;2.20;;;23.90;99.90;;;;;;4999384;28;20422;-84
2022/07/31 12:49:00;;;;;;;2.00;1.20;;;23.60;99.90;;;;;;4996127;28;20044;-86
2022/07/31 12:51:26;;;;;;;3.58;2.00;;;23.60;99.90;;;;;;4983788;28;20038;-84
2022/07/31 12:53:54;;;;;;;3.83;1.63;;;23.40;99.90;;;;;;4974181;28;20072;-84
2022/07/31 12:56:19;;;;;;;4.00;1.33;;;23.20;99.90;;;;;;5010833;28;20482;-82
2022/07/31 12:58:47;;;;;;;2.80;1.13;;;23.20;99.90;;;;;;5011314;28;20076;-84
2022/07/31 13:01:13;;;;;;;3.00;1.70;;;23.20;99.90;;;;;;5011090;28;20022;-82
2022/07/31 13:03:38;;;;;;;2.35;1.75;;;23.10;99.90;;;;;;5001640;28;20033;-82
2022/07/31 13:06:04;;;;;;;2.58;1.92;;;23.10;99.90;;;;;;5010373;28;20470;-86
2022/07/31 13:08:32;;;;;;;2.03;1.60;;;23.20;99.90;;;;;;4993870;28;20038;-87
2022/07/31 13:10:58;;;;;;;4.00;1.98;;;23.50;99.90;;;;;;4997274;28;20452;-84
2022/07/31 13:13:24;;;;;;;1.70;1.27;;;23.80;99.90;;;;;;4993574;28;20053;-84
2022/07/31 13:15:50;;;;;;;2.63;1.38;;;24.40;99.90;;;;;;5010727;28;20030;-87